Cleveland, MO (64734)

3:37 AM CDT on March 27, 2017 (GMT -0500)
ME5859 | | Change Station

Elev 980 ft 38.68 °N, 94.60 °W | Updated 36 minutes ago

Overcast
Overcast
47.0 °F
Feels Like 44 °F
N
6.0
Wind Variable Wind from ENE

Today
High -- | Low -- °F
--% Chance of Precip.
Yesterday
High -- | Low -- °F
Precip. -- in
Pressure 29.80 in
Visibility 10.0 miles
Clouds Mostly Cloudy 700 ft
Mostly Cloudy 4100 ft
Windchill 44 °F
Dew Point 45 °F
Humidity 94%
Rainfall 0.20 in
Snow Depth Not available.
7:10 AM 7:37 PM
Waning Crescent, 1% visible
SPECI KOJC 270805Z AUTO 04016G21KT 10SM BKN007 BKN041 08/08 A2980 RMK AO2 CIG 005V010 T00780078
Pressure 29.80 in
Visibility 10.0 miles
Clouds Mostly Cloudy 700 ft
Mostly Cloudy 4100 ft
Windchill 44 °F
Dew Point 45 °F
Humidity 94%
Rainfall 0.20 in
Snow Depth Not available.
7:10 AM 7:37 PM
Waning Crescent, 1% visible
SPECI KOJC 270805Z AUTO 04016G21KT 10SM BKN007 BKN041 08/08 A2980 RMK AO2 CIG 005V010 T00780078

Get Severe Weather Alerts

Thanks for signing up!

Be on the lookout for a verification email in your inbox.

You'll start receiving the daily forecast at 8 AM.

×

10-Day Weather Forecast

Almanac

Astronomy

Mar. 27, 2017 Rise Set
Actual Time
Civil Twilight
Nautical Twilight
Astronomical Twilight
Moon
Length of Visible Light
Length of Day
Tomorrow will be .
, % of the Moon is Illuminated

Today's Extremes

State Highs State Lows

Community

WunderPhotos

Upload Photos

1,962,540 photos uploaded!

WunderBlog® & News

Nearby

Air Quality

  Air Quality AQ Index Pollutant
Not available.

Snow Depth

Station Depth Elevation

Earthquake Activity

City Distance Mag. Time & Date
Minimum magnitude displayed is 2.5.

Earthquake Activity

City Distance Mag. Time & Date
Minimum magnitude displayed is 2.5.

Coastal Water Temperatures

Place Temperature

Stations

Nearby Weather Stations

Station Location Temp. Windchill Dew Point Humidity Wind Precip. Elev Updated Type
                   

Watches & Warnings

There are currently no watches in effect.